Latest Weather Observations for Cloncurry

IDQ60801

Issued at 7:32 am EST Tuesday 23 December 2014 (issued every 30 minutes, with the page automatically refreshed every 10 minutes)

About weather observations | Map of weather stations | Latest weather observations for QLD | Other Formats
Station Details ID: 029141 Name: CLONCURRY AIRPORT Lat: -20.67 Lon: 140.50 Height: 186.0 m
Data from the previous 72 hours. | See also: Recent months at Cloncurry
Date/Time
EST
Temp
°C
App
Temp
°C
Dew
Point
Rel
Hum
%
Delta-T
°C
Wind Press
QNH
hPa
Press
MSL
hPa
Rain
since 9 am
mm
Dir
 
Spd
km/h
Gust
km/h
Spd
kts
Gust
kts
23/07:30am 29.8 32.6 20.4 57 6.3 ESE 6 7 3 4 1010.8 1009.3 0.0
23/07:00am 28.7 31.5 20.4 60 5.5 ESE 6 7 3 4 1010.2 1008.7 0.0
23/06:30am 27.7 30.5 20.8 66 4.6 SE 7 11 4 6 1009.9 1008.4 0.0
23/06:00am 26.3 29.1 20.4 70 3.9 SE 6 6 3 3 1009.5 1008.0 0.0
23/05:30am 26.2 29.7 20.3 70 3.9 WNW 2 7 1 4 1009.1 1007.6 0.0
23/05:00am 25.7 29.3 19.8 70 3.9 CALM 0 0 0 0 1008.5 1007.0 0.0
23/04:30am 26.4 30.4 20.5 70 3.9 CALM 0 0 0 0 1008.3 1006.8 0.0
23/04:00am 26.6 30.4 20.2 68 4.2 CALM 0 0 0 0 1008.1 1006.6 0.0
23/03:30am 26.9 31.1 21.0 70 3.9 CALM 0 0 0 0 1008.0 1006.5 0.0
23/03:00am 27.0 31.3 21.1 70 3.9 CALM 0 0 0 0 1007.8 1006.4 0.0
23/02:30am 26.8 30.2 20.2 67 4.4 WNW 2 6 1 3 1007.8 1006.4 0.0
23/02:00am 27.1 29.9 20.4 66 4.4 WNW 6 6 3 3 1007.8 1006.4 0.0
23/01:30am 27.7 31.3 19.8 62 5.2 CALM 0 0 0 0 1008.0 1006.5 0.0
23/01:00am 27.9 31.2 19.1 58 5.7 CALM 0 0 0 0 1008.4 1006.9 0.0
23/12:30am 27.7 31.2 19.5 61 5.4 CALM 0 0 0 0 1008.7 1007.2 0.0
23/12:00am 28.7 32.2 19.6 58 6.0 CALM 0 0 0 0 1009.0 1007.5 0.0
 
Date/Time
EST
Temp
°C
App
Temp
°C
Dew
Point
Rel
Hum
%
Delta-T
°C
Wind Press
QNH
hPa
Press
MSL
hPa
Rain
since 9 am
mm
Dir
 
Spd
km/h
Gust
km/h
Spd
kts
Gust
kts
22/11:30pm 28.7 32.4 19.9 59 5.8 CALM 0 0 0 0 1009.1 1007.6 0.0
22/11:00pm 28.7 32.4 19.9 59 5.8 CALM 0 0 0 0 1009.2 1007.7 0.0
22/10:30pm 28.8 32.7 20.3 60 5.6 CALM 0 0 0 0 1009.2 1007.7 0.0
22/10:00pm 29.2 32.4 20.4 59 5.9 SW 4 6 2 3 1009.1 1007.6 0.0
22/09:30pm 29.2 32.0 20.4 59 5.8 SW 6 7 3 4 1008.8 1007.3 0.0
22/09:00pm 29.4 31.9 19.1 54 6.7 SW 4 9 2 5 1008.5 1007.0 0.0
22/08:30pm 30.2 33.5 19.2 51 7.2 CALM 0 0 0 0 1008.3 1006.8 0.0
22/08:00pm 30.0 32.0 18.8 51 7.3 W 6 7 3 4 1008.0 1006.5 0.0
22/07:30pm 30.6 32.4 18.7 49 7.8 NW 7 9 4 5 1007.7 1006.3 0.0
22/07:00pm 31.1 32.8 18.5 47 8.2 NW 7 9 4 5 1007.6 1006.2 0.0
22/06:30pm 31.2 32.8 18.2 46 8.4 W 7 11 4 6 1007.0 1005.6 0.0
22/06:00pm 31.3 32.2 18.3 46 8.5 NW 11 13 6 7 1007.1 1005.7 0.0
22/05:30pm 31.3 30.1 17.6 44 8.8 NW 20 26 11 14 1007.4 1006.0 0.0
22/05:00pm 31.0 31.7 19.7 51 7.5 WSW 15 22 8 12 1007.2 1005.8 0.0
22/04:30pm 32.5 31.7 17.9 41 9.5 SW 19 24 10 13 1007.5 1006.1 0.0
22/04:00pm 33.9 34.1 16.7 35 11.0 WNW 11 24 6 13 1007.3 1005.9 0.0
22/03:30pm 34.5 32.5 16.4 34 11.6 NE 22 32 12 17 1007.7 1006.3 0.0
22/03:00pm 36.2 33.8 16.4 31 12.7 NNE 24 32 13 17 1007.4 1006.0 0.0
22/02:30pm 37.3 36.2 15.2 27 14.0 NNE 15 26 8 14 1007.7 1006.3 0.0
22/02:00pm 37.2 35.5 16.2 29 13.5 NNW 20 35 11 19 1008.2 1006.7 0.0
22/01:30pm 37.4 36.3 16.4 29 13.5 N 17 33 9 18 1008.7 1007.2 0.0
22/01:00pm 36.6 36.1 17.7 32 12.4 N 17 30 9 16 1009.4 1007.9 0.0
22/12:30pm 35.6 34.1 16.8 32 12.1 NNE 20 32 11 17 1010.0 1008.5 0.0
22/12:00pm 34.9 34.1 18.0 36 11.1 NNE 19 30 10 16 1010.6 1009.1 0.0
22/11:30am 36.2 36.3 20.0 38 10.9 N 19 32 10 17 1011.0 1009.5 0.0
22/11:00am 34.4 33.7 19.6 41 9.9 N 22 33 12 18 1011.4 1009.9 0.0
22/10:30am 34.3 34.9 20.3 44 9.4 NNE 17 28 9 15 1011.7 1010.3 0.0
22/10:00am 33.1 32.2 19.9 45 8.8 N 24 35 13 19 1011.8 1010.4 0.0
22/09:30am 32.7 32.2 19.9 46 8.5 N 22 32 12 17 1012.0 1010.6 0.0
22/09:00am 31.8 32.6 20.7 51 7.5 N 17 24 9 13 1011.8 1010.4 0.0
22/08:30am 30.8 32.7 21.3 57 6.4 N 13 17 7 9 1011.5 1010.1 0.0
22/08:00am 30.1 32.6 21.7 60 5.7 N 11 15 6 8 1011.5 1010.1 0.0
22/07:30am 28.8 31.2 21.6 65 4.9 NNW 11 13 6 7 1011.2 1009.7 0.0
22/07:00am 28.2 31.2 22.0 69 4.2 NNW 9 13 5 7 1010.8 1009.3 0.0
22/06:30am 27.4 30.4 21.9 72 3.7 NNW 9 13 5 7 1010.3 1008.8 0.0
22/06:00am 27.2 28.7 21.2 69 4.0 N 15 19 8 10 1010.0 1008.5 0.0
22/05:30am 27.5 28.6 21.3 69 4.2 N 17 22 9 12 1009.4 1007.9 0.0
22/05:00am 27.6 29.7 20.9 67 4.5 N 11 13 6 7 1009.2 1007.7 0.0
22/04:30am 27.8 29.6 21.1 67 4.5 N 13 17 7 9 1009.0 1007.5 0.0
22/04:00am 28.1 30.0 20.6 63 5.0 N 11 15 6 8 1008.9 1007.4 0.0
22/03:30am 28.4 29.8 20.4 62 5.3 N 13 17 7 9 1008.9 1007.4 0.0
22/03:00am 28.7 29.8 20.4 60 5.5 N 15 17 8 9 1008.6 1007.1 0.0
22/02:30am 29.0 30.1 20.4 59 5.7 NNE 15 19 8 10 1008.7 1007.2 0.0
22/02:00am 29.3 30.8 20.5 59 5.9 NNE 13 17 7 9 1008.7 1007.2 0.0
22/01:30am 29.6 30.9 20.2 57 6.2 N 13 15 7 8 1008.6 1007.1 0.0
22/01:00am 30.2 31.8 19.9 54 6.8 N 11 15 6 8 1008.7 1007.2 0.0
22/12:30am 30.3 31.4 19.6 52 7.1 NNE 13 17 7 9 1008.8 1007.3 0.0
22/12:00am 30.7 31.3 19.4 51 7.4 NNW 15 19 8 10 1008.9 1007.4 0.0
 
Date/Time
EST
Temp
°C
App
Temp
°C
Dew
Point
Rel
Hum
%
Delta-T
°C
Wind Press
QNH
hPa
Press
MSL
hPa
Rain
since 9 am
mm
Dir
 
Spd
km/h
Gust
km/h
Spd
kts
Gust
kts
21/11:30pm 31.1 32.1 19.4 49 7.7 NNW 13 19 7 10 1008.8 1007.3 0.0
21/11:00pm 31.7 31.3 19.3 47 8.2 N 20 28 11 15 1009.1 1007.6 0.0
21/10:30pm 32.1 32.1 19.7 48 8.2 N 19 26 10 14 1009.0 1007.5 0.0
21/10:00pm 32.7 32.4 19.6 46 8.7 N 20 26 11 14 1008.8 1007.3 0.0
21/09:30pm 33.2 32.2 18.9 42 9.4 N 22 32 12 17 1008.3 1006.8 0.0
21/09:00pm 33.5 32.7 17.2 37 10.5 NNE 17 20 9 11 1008.2 1006.7 0.0
21/08:30pm 33.9 32.4 16.3 35 11.2 NNE 19 24 10 13 1007.8 1006.4 0.0
21/08:00pm 34.3 32.6 17.1 36 11.1 NNE 22 28 12 15 1007.7 1006.3 0.0
21/07:30pm 34.8 33.2 16.6 33 11.7 NNE 20 30 11 16 1007.4 1006.0 0.0
21/07:00pm 35.2 33.6 16.5 33 12.0 NNE 20 28 11 15 1007.0 1005.6 0.0
21/06:30pm 35.4 34.0 17.1 33 11.8 NNE 20 30 11 16 1006.8 1005.4 0.0
21/06:00pm 35.6 33.2 17.3 33 11.9 NNE 26 33 14 18 1006.3 1004.8 0.0
21/05:30pm 36.3 34.1 17.0 32 12.5 NNE 24 32 13 17 1006.1 1004.6 0.0
21/05:00pm 36.4 33.5 17.0 31 12.6 NNE 28 41 15 22 1006.2 1004.7 0.0
21/04:30pm 35.8 32.1 17.5 34 11.9 NNE 33 46 18 25 1006.1 1004.6 0.0
21/04:25pm 36.4 33.3 18.5 35 11.8 NNE 32 43 17 23 1006.0 1004.5 0.0
21/04:00pm 37.6 35.0 18.6 33 12.6 N 30 39 16 21 1005.9 1004.4 0.0
21/03:30pm 38.6 38.2 16.2 26 14.4 E 13 26 7 14 1006.4 1004.9 0.0
21/03:00pm 39.9 37.6 7.4 14 18.7 ESE 9 15 5 8 1006.4 1004.9 0.0
21/02:30pm 40.6 38.7 8.9 15 18.6 SE 9 28 5 15 1007.0 1005.6 0.0
21/02:00pm 40.5 37.0 8.8 15 18.6 E 17 24 9 13 1007.4 1006.0 0.0
21/01:30pm 38.7 36.9 9.3 17 17.2 SE 9 15 5 8 1007.7 1006.3 0.0
21/01:00pm 39.1 37.6 10.4 18 17.1 NE 9 20 5 11 1008.6 1007.1 0.0
21/12:30pm 38.0 35.1 11.1 20 16.1 NE 17 24 9 13 1009.1 1007.6 0.0
21/12:00pm 38.1 34.4 9.6 18 16.7 ENE 19 28 10 15 1009.6 1008.1 0.0
21/11:30am 38.3 36.1 12.1 21 15.9 NE 15 28 8 15 1010.1 1008.6 0.0
21/11:00am 37.9 36.1 13.2 23 15.3 ENE 15 30 8 16 1010.3 1008.8 0.0
21/10:30am 36.7 36.1 14.6 26 13.9 ENE 11 20 6 11 1010.4 1008.9 0.0
21/10:00am 35.5 34.9 14.7 28 13.0 ENE 11 22 6 12 1010.6 1009.1 0.0
21/09:30am 34.6 33.8 15.0 31 12.3 NE 13 24 7 13 1010.6 1009.1 0.0
21/09:00am 33.8 33.6 14.8 32 11.8 ENE 9 17 5 9 1010.6 1009.1 0.0
21/08:30am 32.5 32.0 13.7 32 11.5 NE 9 17 5 9 1010.2 1008.7 0.0
21/08:00am 31.8 31.3 12.6 31 11.5 E 7 15 4 8 1010.0 1008.5 0.0
21/07:30am 30.7 29.8 10.6 29 11.6 SE 6 7 3 4 1009.8 1008.3 0.0
21/07:00am 29.0 28.2 11.1 33 10.3 SE 6 7 3 4 1009.5 1008.0 0.0
21/06:30am 26.5 26.7 10.6 37 9.0 CALM 0 0 0 0 1009.2 1007.7 0.0
21/06:00am 26.8 25.5 9.2 33 9.8 NNE 6 7 3 4 1008.8 1007.3 0.0
21/05:30am 27.5 26.6 9.3 32 10.1 ENE 4 7 2 4 1008.4 1006.9 0.0
21/05:00am 25.4 23.8 8.0 33 9.4 ESE 6 9 3 5 1008.2 1006.7 0.0
21/04:30am 28.5 26.0 8.2 28 11.1 ESE 11 15 6 8 1007.8 1006.4 0.0
21/04:00am 29.0 25.7 8.1 27 11.5 E 15 17 8 9 1007.7 1006.3 0.0
21/03:30am 29.4 26.1 7.9 26 11.8 E 15 17 8 9 1007.6 1006.2 0.0
21/03:00am 29.7 26.2 7.0 24 12.3 ENE 15 19 8 10 1007.4 1006.0 0.0
21/02:30am 30.9 26.7 7.4 23 12.9 E 19 24 10 13 1007.6 1006.2 0.0
21/02:00am 31.3 26.8 7.1 22 13.3 E 20 26 11 14 1007.8 1006.4 0.0
21/01:30am 31.4 27.1 7.1 22 13.3 E 19 24 10 13 1008.1 1006.6 0.0
21/01:00am 31.5 27.4 7.9 23 13.1 ESE 19 24 10 13 1008.4 1006.9 0.0
21/12:30am 29.0 27.5 10.6 32 10.5 SE 9 11 5 6 1008.7 1007.2 0.0
21/12:00am 28.3 27.0 10.0 32 10.4 ESE 7 7 4 4 1008.8 1007.3 0.0
 
Date/Time
EST
Temp
°C
App
Temp
°C
Dew
Point
Rel
Hum
%
Delta-T
°C
Wind Press
QNH
hPa
Press
MSL
hPa
Rain
since 9 am
mm
Dir
 
Spd
km/h
Gust
km/h
Spd
kts
Gust
kts
20/11:30pm 30.6 29.1 10.5 29 11.6 ESE 9 9 5 5 1008.9 1007.4 0.0
20/11:00pm 30.8 29.0 9.6 27 12.1 ESE 9 11 5 6 1009.0 1007.5 0.0
20/10:30pm 31.7 29.6 9.8 26 12.5 ESE 11 11 6 6 1009.0 1007.5 0.0
20/10:00pm 32.4 30.0 9.9 25 13.0 ESE 13 15 7 8 1008.7 1007.2 0.0
20/09:30pm 32.8 30.7 9.6 24 13.3 ESE 11 11 6 6 1008.7 1007.2 0.0
20/09:00pm 33.6 31.1 9.6 23 13.8 ESE 13 13 7 7 1008.4 1006.9 0.0
20/08:30pm 34.8 32.2 9.3 21 14.7 SE 13 17 7 9 1008.2 1006.7 0.0
20/08:00pm 35.6 32.6 9.2 20 15.3 SE 15 19 8 10 1007.8 1006.4 0.0
20/07:30pm 36.1 32.4 9.6 20 15.4 ESE 19 24 10 13 1007.6 1006.2 0.0
20/07:00pm 36.9 33.0 9.5 19 16.0 SE 20 24 11 13 1007.3 1005.9 0.0
20/06:30pm 37.5 33.3 8.3 17 16.8 SE 20 28 11 15 1007.0 1005.6 0.0
20/06:00pm 37.9 35.1 8.6 17 17.0 SE 13 20 7 11 1006.7 1005.3 0.0
20/05:30pm 38.4 35.0 9.0 17 17.1 SSE 17 26 9 14 1006.5 1005.0 0.0
20/05:00pm 38.5 35.2 8.2 16 17.5 E 15 24 8 13 1006.5 1005.0 0.0
20/04:30pm 39.0 36.2 8.6 16 17.6 SSE 13 22 7 12 1006.5 1005.0 0.0
20/04:00pm 38.0 34.1 8.7 17 17.0 SE 19 30 10 16 1006.8 1005.4 0.0
20/03:30pm 38.2 36.1 9.7 18 16.8 SSE 11 19 6 10 1007.1 1005.7 0.0
20/03:00pm 38.7 36.7 10.1 18 17.0 ESE 11 22 6 12 1007.5 1006.1 0.0
20/02:30pm 38.3 35.4 9.8 18 16.8 ENE 15 26 8 14 1008.0 1006.5 0.0
20/02:00pm 37.3 34.8 9.8 19 16.2 SE 13 28 7 15 1008.7 1007.2 0.0
20/01:30pm 37.9 34.9 11.8 21 15.8 SE 19 30 10 16 1009.1 1007.6 0.0
20/01:00pm 37.8 34.1 10.2 19 16.3 ESE 20 32 11 17 1009.6 1008.1 0.0
20/12:30pm 37.1 34.8 11.8 22 15.3 SE 15 24 8 13 1010.0 1008.5 0.0
20/12:00pm 37.7 33.6 11.6 21 15.8 ESE 24 43 13 23 1010.6 1009.1 0.0
20/11:30am 37.3 33.6 12.7 23 15.0 SE 24 35 13 19 1011.1 1009.6 0.0
20/11:00am 36.2 32.0 12.4 24 14.4 E 26 35 14 19 1011.4 1009.9 0.0
20/10:30am 36.1 32.5 14.1 26 13.7 E 26 37 14 20 1011.7 1010.3 0.0
20/10:00am 34.9 31.8 15.7 31 12.2 ESE 26 39 14 21 1011.8 1010.4 0.0
20/09:30am 34.2 32.4 17.8 37 10.7 E 24 35 13 19 1012.0 1010.6 0.0
20/09:00am 33.0 31.7 17.2 39 10.2 ESE 20 30 11 16 1012.1 1010.7 0.0
20/08:30am 32.1 30.8 17.2 41 9.5 ESE 20 26 11 14 1012.2 1010.8 0.0
20/08:00am 31.0 28.6 15.4 38 9.7 ESE 22 26 12 14 1012.2 1010.8 0.0

Other Formats:

Comma delimited format used in spreadsheet applications
http://www.bom.gov.au/fwo/IDQ60801/IDQ60801.94335.axf

JavaScript Object Notation format (JSON) in row-major order
http://www.bom.gov.au/fwo/IDQ60801/IDQ60801.94335.json